Time;durP1;ratioP1;P1;durP2;ratioP2;P2;SDS_P1;SDS_P2;PMS_P1;PMS_P2;Temp;Humidity;BMP_temperature;BMP_pressure;BME280_temperature;BME280_humidity;BME280_pressure;Samples;Min_cycle;Max_cycle;Signal;HPM_P1;HPM_P2
2021/03/15 00:00:10;;;;;;;18.47;12.70;;;10.30;78.70;;;;;;5068229;28;20685;-73
2021/03/15 00:02:36;;;;;;;20.17;13.43;;;10.30;78.70;;;;;;5042906;28;20228;-73
2021/03/15 00:05:02;;;;;;;22.97;13.80;;;10.40;79.40;;;;;;5069915;28;20193;-72
2021/03/15 00:07:28;;;;;;;25.33;14.93;;;10.30;79.30;;;;;;5052428;28;20272;-73
2021/03/15 00:09:53;;;;;;;23.77;13.77;;;10.40;79.20;;;;;;5067904;28;20309;-74
2021/03/15 00:12:19;;;;;;;22.80;14.23;;;10.40;79.40;;;;;;5062017;28;20731;-74
2021/03/15 00:14:45;;;;;;;24.40;14.53;;;10.40;79.60;;;;;;5046278;28;20650;-74
2021/03/15 00:17:10;;;;;;;23.20;14.17;;;10.40;80.30;;;;;;5066273;28;20180;-74
2021/03/15 00:19:36;;;;;;;21.97;13.60;;;10.30;80.60;;;;;;5056931;28;20989;-72
2021/03/15 00:22:02;;;;;;;22.40;14.07;;;10.20;81.00;;;;;;5046918;28;20266;-73
2021/03/15 00:24:27;;;;;;;19.83;12.73;;;10.20;80.90;;;;;;5050066;28;20195;-73
2021/03/15 00:26:53;;;;;;;24.90;14.23;;;10.20;80.70;;;;;;5068158;28;20189;-73
2021/03/15 00:29:21;;;;;;;22.53;13.77;;;10.20;80.80;;;;;;5057717;28;20187;-74
2021/03/15 00:31:48;;;;;;;22.43;13.73;;;10.20;81.40;;;;;;5068217;28;20993;-73
2021/03/15 00:34:14;;;;;;;24.80;15.00;;;10.20;80.90;;;;;;5070262;28;20179;-73
2021/03/15 00:36:39;;;;;;;19.70;13.60;;;10.10;82.10;;;;;;5070144;28;20187;-73
2021/03/15 00:39:05;;;;;;;17.73;12.63;;;10.10;81.50;;;;;;5049400;28;20672;-73
2021/03/15 00:41:31;;;;;;;20.03;13.87;;;10.10;81.10;;;;;;5065415;28;20183;-73
2021/03/15 00:43:57;;;;;;;18.53;12.83;;;10.10;81.30;;;;;;5052569;28;20580;-74
2021/03/15 00:46:22;;;;;;;26.83;15.70;;;10.10;81.20;;;;;;5065860;28;20217;-72
2021/03/15 00:48:48;;;;;;;26.27;14.33;;;10.10;82.70;;;;;;5065425;28;20180;-72
2021/03/15 00:51:14;;;;;;;25.63;14.87;;;9.80;82.90;;;;;;5065126;28;20630;-72
2021/03/15 00:53:39;;;;;;;23.43;15.30;;;9.90;81.80;;;;;;5039226;28;20762;-73
2021/03/15 00:56:05;;;;;;;26.07;14.47;;;9.90;82.40;;;;;;5057963;28;20188;-73
2021/03/15 00:58:31;;;;;;;23.87;15.40;;;9.90;81.70;;;;;;5065638;28;20179;-74
2021/03/15 01:00:57;;;;;;;19.97;13.60;;;10.00;81.50;;;;;;5042845;28;20201;-73
2021/03/15 01:03:22;;;;;;;22.37;14.10;;;10.00;82.00;;;;;;5066951;28;21153;-73
2021/03/15 01:05:51;;;;;;;23.90;13.40;;;10.00;82.90;;;;;;5060843;28;20195;-73
2021/03/15 01:08:17;;;;;;;26.93;13.60;;;9.90;82.80;;;;;;5067176;28;20183;-74
2021/03/15 01:10:45;;;;;;;23.90;14.30;;;9.90;83.20;;;;;;5045675;28;20713;-74
2021/03/15 01:13:11;;;;;;;24.00;13.60;;;9.90;82.70;;;;;;5066322;28;20183;-74
2021/03/15 01:15:38;;;;;;;21.93;13.83;;;9.90;82.90;;;;;;5046376;28;20568;-74
2021/03/15 01:18:04;;;;;;;20.10;12.67;;;9.90;83.90;;;;;;5064771;28;20190;-71
2021/03/15 01:20:30;;;;;;;21.23;13.03;;;9.90;83.70;;;;;;5067039;28;20198;-78
2021/03/15 01:22:56;;;;;;;23.47;13.87;;;10.00;83.30;;;;;;5040610;28;20175;-78
2021/03/15 01:25:32;;;;;;;27.50;15.50;;;9.90;83.90;;;;;;5054389;28;20949;-78
2021/03/15 01:27:58;;;;;;;27.53;13.87;;;9.80;83.60;;;;;;5060974;28;20170;-78
2021/03/15 01:30:27;;;;;;;19.67;13.27;;;9.80;83.50;;;;;;5065822;28;20241;-78
2021/03/15 01:32:53;;;;;;;22.03;13.47;;;9.80;83.40;;;;;;5069165;28;20587;-78
2021/03/15 01:35:19;;;;;;;21.50;13.27;;;9.90;83.40;;;;;;5056304;28;20199;-78
2021/03/15 01:37:45;;;;;;;24.47;13.70;;;9.90;84.00;;;;;;5065388;28;20616;-78
2021/03/15 01:40:11;;;;;;;19.27;12.27;;;9.90;83.70;;;;;;5063167;28;20229;-79
2021/03/15 01:42:37;;;;;;;20.93;12.43;;;9.90;83.30;;;;;;5056895;28;20211;-79
2021/03/15 01:45:04;;;;;;;22.27;13.30;;;10.00;83.20;;;;;;5060827;28;20225;-78
2021/03/15 01:47:29;;;;;;;19.00;12.73;;;10.00;84.00;;;;;;5044241;28;20191;-78
2021/03/15 01:49:55;;;;;;;21.40;13.20;;;9.90;84.70;;;;;;5084344;28;20189;-79
2021/03/15 01:52:21;;;;;;;18.83;13.03;;;9.90;84.80;;;;;;5066284;28;21130;-79
2021/03/15 01:54:47;;;;;;;20.20;13.10;;;9.90;84.50;;;;;;5066104;28;20182;-79
2021/03/15 01:57:14;;;;;;;20.77;13.87;;;9.90;84.40;;;;;;5045239;28;20184;-79
2021/03/15 01:59:39;;;;;;;21.83;13.47;;;9.90;85.30;;;;;;5076755;28;20190;-79
2021/03/15 02:02:05;;;;;;;20.37;13.40;;;9.90;84.90;;;;;;5047874;28;20179;-79
2021/03/15 02:04:31;;;;;;;20.87;13.40;;;10.00;84.80;;;;;;5069226;28;20210;-77
2021/03/15 02:06:56;;;;;;;23.43;14.50;;;10.00;84.80;;;;;;5059984;28;20183;-78
2021/03/15 02:09:23;;;;;;;22.57;13.03;;;9.90;86.10;;;;;;5065022;28;20301;-78
2021/03/15 02:11:51;;;;;;;22.97;12.77;;;9.80;85.70;;;;;;5053493;28;20206;-78
2021/03/15 02:14:38;;;;;;;21.53;13.20;;;9.80;85.20;;;;;;5047787;28;20190;-78
2021/03/15 02:17:11;;;;;;;23.33;13.67;;;9.80;84.40;;;;;;5057872;28;20274;-78
2021/03/15 02:20:10;;;;;;;19.63;11.93;;;9.80;86.50;;;;;;5041627;28;20199;-78
2021/03/15 02:23:00;;;;;;;22.17;12.20;;;9.70;85.30;;;;;;5062955;28;20175;-78
2021/03/15 02:25:38;;;;;;;20.93;12.40;;;9.80;85.10;;;;;;5061649;28;20177;-78
2021/03/15 02:28:16;;;;;;;25.57;13.00;;;9.80;85.30;;;;;;5048177;28;20670;-77
2021/03/15 02:30:56;;;;;;;20.30;11.90;;;9.80;85.50;;;;;;5065352;28;20858;-77
2021/03/15 02:33:55;;;;;;;16.87;12.00;;;9.80;85.60;;;;;;5061667;28;20940;-77
2021/03/15 02:36:25;;;;;;;20.80;12.07;;;9.80;86.00;;;;;;5061166;28;20175;-77
2021/03/15 02:38:52;;;;;;;17.13;11.43;;;9.80;85.90;;;;;;5059007;28;20273;-77
2021/03/15 02:41:19;;;;;;;17.33;11.70;;;9.80;85.80;;;;;;5051643;28;20275;-79
2021/03/15 02:43:48;;;;;;;19.83;11.90;;;9.80;85.60;;;;;;5052960;28;20210;-78
2021/03/15 02:46:33;;;;;;;19.77;12.50;;;9.90;85.30;;;;;;5044072;28;20187;-78
2021/03/15 02:49:06;;;;;;;16.80;12.03;;;9.90;85.10;;;;;;5057268;28;20203;-78
2021/03/15 02:51:35;;;;;;;17.03;10.93;;;9.90;85.20;;;;;;5054901;28;20257;-79
2021/03/15 02:54:03;;;;;;;21.93;12.00;;;10.00;85.40;;;;;;5048458;28;20219;-77
2021/03/15 02:56:31;;;;;;;19.13;12.77;;;10.00;85.30;;;;;;5070230;28;20936;-79
2021/03/15 02:59:03;;;;;;;18.93;12.37;;;10.00;85.30;;;;;;5051143;28;20179;-75
2021/03/15 03:01:29;;;;;;;18.90;12.40;;;10.00;85.20;;;;;;5036326;28;20219;-78
2021/03/15 03:03:57;;;;;;;16.23;12.07;;;10.00;85.30;;;;;;5063647;28;20195;-79
2021/03/15 03:06:28;;;;;;;18.90;11.80;;;10.10;85.20;;;;;;5060641;28;20192;-77
2021/03/15 03:08:57;;;;;;;18.57;11.93;;;10.10;85.00;;;;;;5043075;28;20210;-78
2021/03/15 03:11:24;;;;;;;21.40;10.80;;;10.10;85.20;;;;;;5061480;28;20202;-79
2021/03/15 03:13:52;;;;;;;16.73;12.33;;;10.10;85.20;;;;;;5068978;28;20183;-78
2021/03/15 03:16:23;;;;;;;16.07;11.97;;;10.00;86.50;;;;;;5055560;28;20274;-78
2021/03/15 03:18:53;;;;;;;17.07;11.20;;;10.00;86.70;;;;;;5040613;28;20183;-78
2021/03/15 03:21:24;;;;;;;23.90;13.07;;;9.90;86.90;;;;;;5062019;28;20206;-79
2021/03/15 03:23:53;;;;;;;19.23;11.77;;;9.90;86.30;;;;;;5058722;28;20188;-79
2021/03/15 03:26:27;;;;;;;15.70;11.13;;;9.90;86.30;;;;;;5040579;28;20207;-76
2021/03/15 03:28:55;;;;;;;20.70;11.47;;;9.90;86.00;;;;;;5055757;28;20848;-78
2021/03/15 03:31:25;;;;;;;20.77;12.10;;;9.90;86.10;;;;;;5067993;28;20689;-78
2021/03/15 03:33:51;;;;;;;19.07;12.53;;;9.90;86.40;;;;;;5064607;28;20175;-78
2021/03/15 03:36:18;;;;;;;18.17;11.50;;;9.90;86.40;;;;;;5055719;28;20243;-78
2021/03/15 03:38:44;;;;;;;17.77;11.60;;;9.90;86.20;;;;;;5058996;28;20206;-78
2021/03/15 03:41:10;;;;;;;17.73;11.97;;;9.90;87.90;;;;;;5044932;28;20736;-77
2021/03/15 03:43:37;;;;;;;17.80;11.73;;;9.80;87.20;;;;;;5062100;28;20810;-78
2021/03/15 03:46:05;;;;;;;20.00;12.33;;;9.80;87.10;;;;;;5062467;28;20186;-78
2021/03/15 03:48:31;;;;;;;17.00;11.30;;;9.80;87.00;;;;;;5062437;28;20225;-78
2021/03/15 03:50:58;;;;;;;20.63;10.87;;;9.90;87.10;;;;;;5056874;28;20207;-78
2021/03/15 03:53:45;;;;;;;17.13;11.30;;;9.80;87.80;;;;;;5057758;28;20194;-78
2021/03/15 03:56:17;;;;;;;17.63;12.27;;;9.80;86.80;;;;;;5047952;28;20198;-78
2021/03/15 03:58:46;;;;;;;15.70;11.07;;;9.80;88.10;;;;;;5060366;28;20248;-78
2021/03/15 04:01:13;;;;;;;20.17;11.50;;;9.70;88.20;;;;;;5062146;28;20278;-78
2021/03/15 04:03:42;;;;;;;14.83;11.67;;;9.70;88.10;;;;;;5045394;28;20730;-78
2021/03/15 04:06:11;;;;;;;17.87;12.20;;;9.60;87.80;;;;;;5062462;28;20836;-78
2021/03/15 04:08:48;;;;;;;17.33;11.17;;;9.60;87.60;;;;;;5064020;28;20187;-78
2021/03/15 04:11:15;;;;;;;13.63;10.80;;;9.60;88.20;;;;;;5045350;28;20239;-77
2021/03/15 04:13:43;;;;;;;16.53;11.90;;;9.60;88.00;;;;;;5060586;28;20186;-78
2021/03/15 04:16:12;;;;;;;18.80;12.37;;;9.50;88.40;;;;;;5039920;28;20183;-78
2021/03/15 04:18:42;;;;;;;18.13;10.83;;;9.50;88.40;;;;;;5034806;28;20229;-78
2021/03/15 04:21:09;;;;;;;21.10;11.93;;;9.50;88.70;;;;;;5060082;28;20691;-78
2021/03/15 04:23:38;;;;;;;19.57;11.57;;;9.50;88.70;;;;;;5053410;28;20580;-78
2021/03/15 04:26:05;;;;;;;18.47;11.87;;;9.40;88.80;;;;;;5075264;28;20277;-79
2021/03/15 04:28:34;;;;;;;13.87;10.57;;;9.40;88.80;;;;;;5052661;28;20187;-78
2021/03/15 04:31:02;;;;;;;18.20;12.43;;;9.30;89.20;;;;;;5052461;28;20214;-78
2021/03/15 04:33:28;;;;;;;15.43;11.87;;;9.30;89.20;;;;;;5055758;28;20198;-78
2021/03/15 04:35:54;;;;;;;14.70;10.70;;;9.30;89.30;;;;;;5053260;28;20187;-78
2021/03/15 04:38:21;;;;;;;15.00;10.87;;;9.30;89.00;;;;;;5064017;28;20237;-78
2021/03/15 04:40:48;;;;;;;17.10;10.40;;;9.30;89.30;;;;;;5071644;28;20189;-78
2021/03/15 04:43:15;;;;;;;16.00;11.20;;;9.20;89.40;;;;;;5050306;28;20187;-79
2021/03/15 04:45:43;;;;;;;16.67;11.03;;;9.20;89.90;;;;;;5070363;28;20197;-78
2021/03/15 04:48:26;;;;;;;15.83;10.07;;;9.10;90.10;;;;;;5072321;28;20673;-77
2021/03/15 04:50:56;;;;;;;16.30;9.87;;;9.10;89.60;;;;;;5040008;28;20226;-77
2021/03/15 04:53:22;;;;;;;14.37;10.50;;;9.20;89.60;;;;;;5066200;28;20266;-77
2021/03/15 04:55:48;;;;;;;14.97;10.30;;;9.20;89.70;;;;;;5066274;28;20185;-78
2021/03/15 04:58:17;;;;;;;16.13;10.63;;;9.20;89.70;;;;;;5060947;28;20247;-79
2021/03/15 05:00:48;;;;;;;16.17;10.73;;;9.20;89.50;;;;;;5054193;28;20277;-78
2021/03/15 05:03:15;;;;;;;15.60;11.03;;;9.20;89.70;;;;;;5067563;28;20179;-78
2021/03/15 05:05:44;;;;;;;18.23;10.93;;;9.20;89.60;;;;;;5062298;28;20248;-72
2021/03/15 05:08:13;;;;;;;16.20;11.47;;;9.20;89.70;;;;;;5056126;28;20187;-74
2021/03/15 05:10:40;;;;;;;16.37;11.70;;;9.20;91.00;;;;;;5055228;28;20188;-74
2021/03/15 05:13:06;;;;;;;15.77;11.10;;;9.20;89.90;;;;;;5065425;28;20178;-74
2021/03/15 05:15:33;;;;;;;16.63;11.77;;;9.30;90.50;;;;;;5048532;28;20179;-74
2021/03/15 05:17:59;;;;;;;21.80;12.20;;;9.20;90.00;;;;;;5061541;28;20191;-73
2021/03/15 05:20:26;;;;;;;17.87;11.17;;;9.30;90.10;;;;;;5058514;28;20206;-73
2021/03/15 05:22:53;;;;;;;19.43;11.53;;;9.30;89.80;;;;;;5064727;28;20663;-74
2021/03/15 05:25:21;;;;;;;15.57;11.30;;;9.30;89.50;;;;;;5061927;28;20175;-73
2021/03/15 05:27:51;;;;;;;13.80;10.00;;;9.40;89.70;;;;;;5060923;28;20635;-74
2021/03/15 05:30:19;;;;;;;17.77;11.27;;;9.50;89.40;;;;;;5063915;28;20194;-77
2021/03/15 05:32:50;;;;;;;16.40;10.37;;;9.50;89.10;;;;;;5063371;28;20203;-75
2021/03/15 05:35:18;;;;;;;19.23;12.67;;;9.60;88.80;;;;;;5070957;28;20179;-82
2021/03/15 05:37:46;;;;;;;14.60;11.50;;;9.70;88.80;;;;;;5053646;28;20180;-75
2021/03/15 05:40:18;;;;;;;16.17;10.83;;;9.80;88.50;;;;;;5064449;28;20674;-76
2021/03/15 05:43:10;;;;;;;17.90;9.67;;;9.80;88.60;;;;;;5063017;28;20209;-77
2021/03/15 05:46:04;;;;;;;13.07;10.37;;;9.90;87.80;;;;;;4977665;28;20201;-81
2021/03/15 05:48:41;;;;;;;15.37;11.27;;;9.90;88.00;;;;;;4960667;28;20838;-78
2021/03/15 05:51:34;;;;;;;16.63;11.73;;;10.00;88.20;;;;;;4966778;28;20804;-79
2021/03/15 05:54:27;;;;;;;16.27;10.67;;;10.00;87.70;;;;;;4958014;28;20261;-74
2021/03/15 05:57:31;;;;;;;13.87;10.90;;;10.10;87.40;;;;;;4964579;28;20235;-72
2021/03/15 06:00:12;;;;;;;18.00;10.90;;;10.20;87.10;;;;;;4929245;29;20203;-74
2021/03/15 06:02:49;;;;;;;16.50;10.77;;;10.20;86.30;;;;;;4925519;29;20214;-74
2021/03/15 06:05:25;;;;;;;15.83;10.77;;;10.10;86.70;;;;;;4918984;29;20261;-73
2021/03/15 06:07:56;;;;;;;12.73;10.30;;;10.20;86.50;;;;;;4928858;29;21032;-73
2021/03/15 06:10:42;;;;;;;14.83;10.07;;;10.20;86.90;;;;;;4924606;29;20211;-72
2021/03/15 06:13:13;;;;;;;18.77;11.63;;;10.20;87.20;;;;;;4897085;29;20201;-73
2021/03/15 06:15:42;;;;;;;17.73;11.43;;;10.20;87.10;;;;;;4879819;29;20201;-73
2021/03/15 06:18:10;;;;;;;19.50;11.70;;;10.20;86.80;;;;;;4896195;29;20228;-73
2021/03/15 06:20:40;;;;;;;15.70;11.03;;;10.20;86.50;;;;;;4888292;29;20239;-72
2021/03/15 06:23:06;;;;;;;15.97;11.83;;;10.20;86.40;;;;;;4913697;29;20210;-74
2021/03/15 06:25:34;;;;;;;15.47;11.57;;;10.30;86.40;;;;;;4925536;29;21191;-73
2021/03/15 06:28:00;;;;;;;16.93;10.97;;;10.30;86.60;;;;;;4928233;29;20527;-73
2021/03/15 06:30:27;;;;;;;18.37;11.27;;;10.40;86.70;;;;;;4909099;29;20203;-73
2021/03/15 06:32:54;;;;;;;15.03;11.00;;;10.50;86.10;;;;;;4923995;29;20221;-73
2021/03/15 06:35:27;;;;;;;18.90;10.83;;;10.50;85.70;;;;;;4924315;29;20191;-73
2021/03/15 06:37:54;;;;;;;18.92;11.18;;;10.50;85.50;;;;;;4997339;28;20181;-74
2021/03/15 06:40:21;;;;;;;14.60;10.70;;;10.60;85.50;;;;;;5001687;28;20243;-72
2021/03/15 06:42:48;;;;;;;12.23;9.73;;;10.60;85.10;;;;;;5005789;28;20178;-73
2021/03/15 06:45:16;;;;;;;13.80;9.43;;;10.60;85.20;;;;;;4997886;28;20231;-73
2021/03/15 06:47:43;;;;;;;13.50;9.20;;;10.70;85.10;;;;;;4998191;28;20724;-69
2021/03/15 06:50:11;;;;;;;11.50;8.87;;;10.70;84.80;;;;;;5027317;28;20861;-69
2021/03/15 06:52:52;;;;;;;13.40;9.13;;;10.80;84.90;;;;;;5060685;28;20199;-72
2021/03/15 06:55:18;;;;;;;11.67;8.73;;;10.90;84.20;;;;;;5060428;28;20183;-73
2021/03/15 06:57:44;;;;;;;13.27;9.17;;;10.90;84.70;;;;;;5038988;28;20178;-72
2021/03/15 07:00:11;;;;;;;12.10;8.93;;;11.00;84.60;;;;;;5059711;28;20316;-73
2021/03/15 07:02:37;;;;;;;13.80;10.03;;;11.10;84.50;;;;;;5061367;28;20188;-74
2021/03/15 07:05:14;;;;;;;13.27;10.30;;;11.20;84.70;;;;;;5055897;28;20292;-74
2021/03/15 07:07:49;;;;;;;11.73;9.50;;;11.20;83.90;;;;;;5054043;28;20568;-74
2021/03/15 07:10:18;;;;;;;13.88;10.15;;;11.20;84.00;;;;;;5065931;28;20199;-73
2021/03/15 07:12:44;;;;;;;12.07;9.82;;;11.20;84.30;;;;;;5056150;28;20196;-73
2021/03/15 07:15:10;;;;;;;12.15;9.55;;;11.30;84.10;;;;;;5051594;28;20186;-74
2021/03/15 07:17:36;;;;;;;15.40;9.60;;;11.30;84.30;;;;;;5049557;28;20175;-74
2021/03/15 07:20:05;;;;;;;12.98;9.68;;;11.40;84.20;;;;;;5048635;28;20198;-74
2021/03/15 07:22:31;;;;;;;13.35;8.88;;;11.40;84.50;;;;;;5050663;28;20190;-75
2021/03/15 07:25:12;;;;;;;10.48;9.38;;;11.40;84.20;;;;;;5047451;28;20244;-74
2021/03/15 07:27:42;;;;;;;13.63;10.35;;;11.50;84.50;;;;;;5059246;28;20201;-74
2021/03/15 07:30:31;;;;;;;13.97;9.97;;;11.50;84.00;;;;;;5057292;28;20182;-74
2021/03/15 07:33:21;;;;;;;11.52;9.13;;;11.50;83.70;;;;;;5055226;28;20676;-74
2021/03/15 07:35:48;;;;;;;12.85;10.02;;;11.60;84.10;;;;;;5050538;28;20182;-74
2021/03/15 07:38:14;;;;;;;14.60;9.23;;;11.70;83.80;;;;;;5052941;28;20179;-74
2021/03/15 07:40:47;;;;;;;16.02;9.82;;;11.70;83.70;;;;;;5040404;28;20668;-73
2021/03/15 07:43:25;;;;;;;12.63;9.40;;;11.70;83.00;;;;;;5052244;28;20171;-74
2021/03/15 07:45:51;;;;;;;14.43;9.50;;;11.70;83.70;;;;;;5049132;28;20267;-73
2021/03/15 07:48:18;;;;;;;12.02;8.88;;;11.70;83.30;;;;;;5039205;28;20629;-74
2021/03/15 07:50:55;;;;;;;13.70;10.00;;;11.60;83.00;;;;;;5054712;28;20207;-74
2021/03/15 07:53:35;;;;;;;14.80;9.20;;;11.50;83.90;;;;;;5051729;28;20190;-73
2021/03/15 07:56:01;;;;;;;16.60;9.18;;;11.40;83.50;;;;;;5065244;28;20631;-74
2021/03/15 07:58:26;;;;;;;16.38;9.07;;;11.50;83.80;;;;;;5055817;28;20182;-74
2021/03/15 08:00:54;;;;;;;11.77;9.05;;;11.60;83.80;;;;;;5052305;28;20183;-73
2021/03/15 08:03:21;;;;;;;14.23;9.70;;;11.80;83.80;;;;;;5054397;28;20175;-75
2021/03/15 08:05:48;;;;;;;12.07;9.48;;;11.90;83.60;;;;;;5051727;28;20183;-74
2021/03/15 08:08:14;;;;;;;15.05;10.15;;;12.00;83.40;;;;;;5054113;28;20184;-75
2021/03/15 08:10:44;;;;;;;14.45;9.85;;;12.10;83.50;;;;;;5053876;28;20214;-73
2021/03/15 08:13:16;;;;;;;12.93;9.13;;;12.30;82.60;;;;;;5059911;28;20669;-74
2021/03/15 08:15:45;;;;;;;14.32;10.35;;;12.40;82.50;;;;;;5073044;28;20232;-75
2021/03/15 08:18:18;;;;;;;14.88;9.98;;;12.60;82.20;;;;;;5043222;28;20179;-74
2021/03/15 08:20:47;;;;;;;13.30;9.90;;;12.80;81.60;;;;;;5058932;28;20197;-74
2021/03/15 08:23:14;;;;;;;12.27;9.38;;;12.90;81.20;;;;;;5053291;28;20182;-74
2021/03/15 08:25:43;;;;;;;13.18;10.10;;;13.10;81.30;;;;;;5039265;28;20216;-74
2021/03/15 08:28:11;;;;;;;13.48;10.60;;;13.30;80.30;;;;;;5057281;28;20209;-74
2021/03/15 08:30:42;;;;;;;12.00;9.63;;;13.40;79.90;;;;;;5060094;28;20178;-74
2021/03/15 08:33:12;;;;;;;12.48;9.35;;;13.50;79.70;;;;;;5059848;28;20176;-75
2021/03/15 08:35:38;;;;;;;12.00;9.50;;;13.60;79.20;;;;;;5053434;28;20253;-74
2021/03/15 08:38:06;;;;;;;13.90;9.85;;;13.60;79.00;;;;;;5040527;28;20184;-74
2021/03/15 08:40:43;;;;;;;12.65;8.75;;;13.70;78.80;;;;;;5039353;28;21049;-74
2021/03/15 08:43:18;;;;;;;12.60;9.20;;;13.80;78.20;;;;;;5053042;28;20405;-74
2021/03/15 08:45:52;;;;;;;10.98;8.57;;;13.80;78.00;;;;;;5053818;28;20175;-74
2021/03/15 08:48:20;;;;;;;9.77;8.23;;;13.80;77.90;;;;;;5056281;28;20739;-74
2021/03/15 08:50:47;;;;;;;16.45;9.85;;;13.90;77.90;;;;;;5063044;28;20340;-74
2021/03/15 08:53:39;;;;;;;15.43;9.75;;;14.00;77.50;;;;;;5059097;28;20183;-74
2021/03/15 08:56:11;;;;;;;12.75;8.57;;;14.00;77.70;;;;;;5063303;28;20297;-73
2021/03/15 08:58:44;;;;;;;11.07;8.38;;;14.00;77.50;;;;;;5056124;28;20200;-73
2021/03/15 09:01:18;;;;;;;12.18;8.73;;;14.00;77.30;;;;;;5059765;28;21214;-73
2021/03/15 09:03:50;;;;;;;13.07;9.00;;;14.00;77.20;;;;;;5063713;28;20206;-74
2021/03/15 09:09:14;;;;;;;9.50;8.30;;;14.10;77.00;;;;;;5070799;28;20183;-74
2021/03/15 09:11:45;;;;;;;10.63;9.38;;;14.20;76.90;;;;;;5062849;28;20976;-77
2021/03/15 09:14:16;;;;;;;12.00;8.63;;;14.30;76.50;;;;;;5050520;28;20189;-71
2021/03/15 09:16:48;;;;;;;12.15;8.50;;;14.40;76.40;;;;;;5063116;28;20175;-70
2021/03/15 09:19:27;;;;;;;9.68;8.52;;;14.60;76.00;;;;;;5077573;28;20178;-73
2021/03/15 09:21:57;;;;;;;12.43;9.38;;;14.90;75.10;;;;;;5050702;28;20194;-73
2021/03/15 09:24:46;;;;;;;10.30;8.82;;;15.30;74.40;;;;;;5068546;28;20183;-73
2021/03/15 09:27:34;;;;;;;12.98;9.73;;;15.90;73.30;;;;;;5057856;28;20194;-72
2021/03/15 09:30:05;;;;;;;9.05;8.00;;;16.40;72.10;;;;;;5067699;28;20183;-74
2021/03/15 09:32:35;;;;;;;14.55;9.75;;;16.60;71.60;;;;;;5049467;28;20207;-73
2021/03/15 09:35:23;;;;;;;12.05;9.50;;;16.80;70.80;;;;;;5065485;28;20272;-73
2021/03/15 09:37:53;;;;;;;13.32;8.93;;;16.80;69.60;;;;;;4965292;28;20201;-73
2021/03/15 09:40:21;;;;;;;17.83;9.18;;;16.70;69.70;;;;;;4964769;28;20281;-75
2021/03/15 09:42:47;;;;;;;13.50;9.45;;;16.60;69.70;;;;;;4962823;28;20198;-75
2021/03/15 09:45:23;;;;;;;10.80;8.63;;;16.50;69.70;;;;;;4964915;28;20186;-73
2021/03/15 09:47:49;;;;;;;12.10;8.25;;;16.40;70.40;;;;;;4963710;28;20219;-75
2021/03/15 09:50:20;;;;;;;11.98;9.48;;;16.30;70.80;;;;;;4964437;28;20233;-75
2021/03/15 09:52:46;;;;;;;12.48;9.43;;;16.20;70.80;;;;;;4956326;28;20305;-74
2021/03/15 09:55:12;;;;;;;12.50;9.57;;;16.20;71.00;;;;;;4965190;28;20313;-75
2021/03/15 09:57:37;;;;;;;10.48;8.88;;;16.10;71.30;;;;;;4964751;28;20183;-74
2021/03/15 10:00:16;;;;;;;12.95;9.35;;;15.90;70.30;;;;;;4964565;28;20194;-75
2021/03/15 10:02:45;;;;;;;11.07;8.88;;;15.50;71.70;;;;;;4963254;28;20202;-72
2021/03/15 10:05:17;;;;;;;11.43;8.02;;;15.30;72.00;;;;;;4965698;28;20194;-75
2021/03/15 10:07:47;;;;;;;11.57;8.27;;;15.00;72.80;;;;;;4970352;28;20981;-78
2021/03/15 10:10:18;;;;;;;11.80;8.75;;;14.50;72.60;;;;;;4948377;28;20679;-75
2021/03/15 10:12:47;;;;;;;11.35;8.88;;;14.20;73.60;;;;;;4947625;28;20209;-77
2021/03/15 10:15:13;;;;;;;9.88;8.45;;;13.70;74.90;;;;;;5023361;28;20206;-75
2021/03/15 10:17:39;;;;;;;16.20;9.18;;;13.40;75.70;;;;;;5068755;28;20183;-76
2021/03/15 10:20:09;;;;;;;10.07;8.70;;;13.30;76.40;;;;;;5046573;28;20221;-76
2021/03/15 10:22:35;;;;;;;9.40;8.40;;;13.20;76.80;;;;;;5052064;28;20214;-76
2021/03/15 10:25:02;;;;;;;14.75;8.70;;;13.10;77.20;;;;;;5061325;28;20179;-75
2021/03/15 10:27:30;;;;;;;9.60;7.88;;;12.90;77.70;;;;;;5047469;28;20601;-74
2021/03/15 10:30:09;;;;;;;9.00;7.90;;;12.70;78.30;;;;;;5065518;28;20720;-74
2021/03/15 10:32:36;;;;;;;9.63;7.10;;;12.70;78.40;;;;;;5066256;28;20277;-75
2021/03/15 10:35:04;;;;;;;7.07;6.38;;;12.70;78.80;;;;;;5062355;28;20183;-76
2021/03/15 10:37:41;;;;;;;8.07;6.22;;;12.80;79.20;;;;;;5047248;28;20187;-77
2021/03/15 10:40:10;;;;;;;10.32;5.57;;;12.90;79.20;;;;;;5046306;28;20183;-79
2021/03/15 10:42:38;;;;;;;6.18;5.57;;;13.10;78.80;;;;;;5046970;28;20182;-75
2021/03/15 10:45:09;;;;;;;8.45;7.60;;;13.10;80.10;;;;;;5063613;28;20214;-76
2021/03/15 10:47:37;;;;;;;8.23;7.43;;;13.20;80.30;;;;;;5067796;28;20300;-75
2021/03/15 10:50:30;;;;;;;11.13;7.40;;;13.30;80.10;;;;;;5064951;28;20179;-76
2021/03/15 10:52:57;;;;;;;8.27;7.15;;;13.40;80.00;;;;;;5065371;28;20708;-74
2021/03/15 10:55:34;;;;;;;6.60;5.90;;;13.60;79.90;;;;;;5061325;28;20182;-75
2021/03/15 10:58:07;;;;;;;10.73;7.13;;;13.70;79.20;;;;;;5064912;28;20186;-75
2021/03/15 11:00:44;;;;;;;7.70;6.68;;;13.80;78.80;;;;;;5044196;28;20179;-76
2021/03/15 11:03:21;;;;;;;10.00;7.07;;;14.00;78.30;;;;;;5067762;28;20560;-76
2021/03/15 11:05:46;;;;;;;11.57;8.40;;;14.10;78.30;;;;;;5064490;28;20855;-80
2021/03/15 11:08:19;;;;;;;11.98;8.45;;;14.20;78.00;;;;;;5037877;28;20186;-73
2021/03/15 11:10:46;;;;;;;10.13;8.15;;;14.30;77.50;;;;;;5064088;28;20214;-80
2021/03/15 11:13:16;;;;;;;13.00;9.05;;;14.30;77.50;;;;;;5038018;28;20207;-81
2021/03/15 11:15:42;;;;;;;11.50;9.10;;;14.40;77.30;;;;;;5063693;28;20186;-81
2021/03/15 11:18:11;;;;;;;14.15;9.45;;;14.40;77.00;;;;;;5048221;28;20179;-80
2021/03/15 11:20:41;;;;;;;13.75;9.48;;;14.30;76.30;;;;;;5048777;28;20488;-80
2021/03/15 11:23:08;;;;;;;14.75;10.18;;;14.20;76.90;;;;;;5047527;28;20190;-81
2021/03/15 11:25:34;;;;;;;9.48;7.72;;;13.80;77.60;;;;;;5047595;28;20279;-80
2021/03/15 11:28:13;;;;;;;10.95;7.05;;;13.50;77.60;;;;;;5046874;28;20642;-81
2021/03/15 11:30:40;;;;;;;6.35;5.22;;;13.20;76.90;;;;;;5046554;28;20185;-81
2021/03/15 11:33:11;;;;;;;3.70;3.50;;;12.70;77.30;;;;;;5064591;28;20202;-78
2021/03/15 11:35:41;;;;;;;3.03;2.72;;;12.20;79.70;;;;;;5063949;28;20179;-77
2021/03/15 11:38:08;;;;;;;2.55;2.35;;;11.70;80.90;;;;;;5046483;28;20195;-84
2021/03/15 11:40:41;;;;;;;2.80;2.67;;;11.20;83.20;;;;;;5050150;28;20257;-84
2021/03/15 11:43:11;;;;;;;2.67;2.42;;;10.90;84.70;;;;;;5047132;28;20190;-83
2021/03/15 11:45:36;;;;;;;2.40;2.30;;;10.60;86.10;;;;;;5050292;28;20179;-76
2021/03/15 11:48:04;;;;;;;2.60;2.50;;;10.30;88.40;;;;;;5061818;28;20286;-79
2021/03/15 11:50:32;;;;;;;4.97;2.42;;;10.00;89.10;;;;;;5063355;28;20190;-82
2021/03/15 11:52:58;;;;;;;2.60;2.17;;;9.70;90.90;;;;;;5050724;28;20205;-79
2021/03/15 11:58:08;;;;;;;2.33;2.23;;;9.30;91.40;;;;;;5065424;28;20934;-78
2021/03/15 12:00:34;;;;;;;1.97;1.67;;;9.30;91.90;;;;;;5066358;28;20214;-74
2021/03/15 12:03:01;;;;;;;4.33;1.80;;;9.20;92.70;;;;;;5064820;28;20189;-78
2021/03/15 12:05:27;;;;;;;1.23;1.13;;;9.20;92.80;;;;;;5064052;28;20634;-78
2021/03/15 12:07:52;;;;;;;1.70;1.40;;;9.10;92.10;;;;;;5065496;28;20262;-77
2021/03/15 12:10:18;;;;;;;1.47;1.37;;;9.10;91.70;;;;;;5049457;28;20183;-77
2021/03/15 12:12:45;;;;;;;1.80;1.60;;;9.10;92.40;;;;;;5065099;28;20652;-78
2021/03/15 12:15:13;;;;;;;2.10;1.40;;;9.00;93.00;;;;;;5048324;28;20175;-78
2021/03/15 12:50:30;;;;;;;0.73;0.73;;;9.10;91.50;;;;;;5051953;28;20282;-84
2021/03/15 12:52:58;;;;;;;0.60;0.60;;;9.20;92.10;;;;;;5039205;28;20175;-88
2021/03/15 12:55:24;;;;;;;0.83;0.83;;;9.30;92.90;;;;;;5074804;28;20202;-84
2021/03/15 12:57:50;;;;;;;1.03;1.03;;;9.30;92.90;;;;;;5071452;28;20217;-87
2021/03/15 13:00:16;;;;;;;0.97;0.97;;;9.40;92.10;;;;;;5070637;28;20187;-85
2021/03/15 13:02:43;;;;;;;1.17;0.70;;;9.40;91.80;;;;;;5057634;28;20313;-87
2021/03/15 13:05:09;;;;;;;0.60;0.60;;;9.30;90.80;;;;;;5039918;28;20255;-81
2021/03/15 13:07:35;;;;;;;0.97;0.97;;;9.20;90.50;;;;;;5049045;28;20183;-84
2021/03/15 13:10:00;;;;;;;0.70;0.70;;;9.10;90.50;;;;;;5046907;28;20306;-83
2021/03/15 13:12:26;;;;;;;0.83;0.83;;;9.00;90.60;;;;;;5037062;28;20195;-78
2021/03/15 13:14:52;;;;;;;0.60;0.60;;;8.90;90.40;;;;;;5051282;28;20252;-79
2021/03/15 13:17:18;;;;;;;3.43;0.60;;;8.90;90.50;;;;;;5062619;28;20274;-79
2021/03/15 13:19:46;;;;;;;0.70;0.70;;;8.90;90.60;;;;;;5062744;28;20189;-77
2021/03/15 13:22:12;;;;;;;0.53;0.53;;;8.80;90.40;;;;;;5068588;28;20196;-79
2021/03/15 13:24:37;;;;;;;0.47;0.47;;;8.70;90.20;;;;;;5047825;28;20186;-78
2021/03/15 13:27:03;;;;;;;0.73;0.40;;;8.60;90.90;;;;;;5067779;28;20181;-78
2021/03/15 13:29:29;;;;;;;1.23;0.40;;;8.40;90.60;;;;;;5062144;28;20179;-78